Главная страница
METAR-TAF:

METAR-TAF

Аэропорты :

Тайпин

Харбин, Китай

широта: 45-45N, долгота: 126-46E, высота над уровнем моря: 143 м

Текущие метеонаблюдения

Эта сводка был подготовлена 56 минут назад, в 18:00 UTC
Ветер 6 Узел от западный
Температура -8°C
Влажность 62%
Давление 1027 hPa
Видимость 10 км и более
Нет облачности ниже 1500 м, и нет кучево-дождевой облачности

METAR: ZYHB 151800Z 28003MPS CAVOK M08/M14 Q1027 NOSIG

Время: 02:56 (18:56 UTC)

Прогноз

Эта сводка был подготовлена 3 часа и 39 минут назад, в 15:17 UTC
Прогноз действительный с 15-го 18 UTC до 16-го 18 UTC
Ветер 8 Узел от западный
Видимость: 6000 м
Отдельные облака на высоте 2600 фута

TAF: ZYHB 151517Z 1518/1618 26004MPS 6000 SCT026 TXM02/06Z TNM11/22Z

Метеонаблюдения и прогнозы для более 4000 аэропортов (сводки METAR и TAF).

Имеющиеся станции представлены на карте желтыми и красными точками.

Чтобы увидеть название станции, наведите на нее мышь.

Затем щелкните, чтобы увидеть метеонаблюдения и метеопрогнозы.

Управление картой: чтобы увеличить масштаб, щелкните зеленые кнопки с черным крестиком; чтобы уменьшить масштаб, щелкните зеленую кнопку с тире; для просмотра соседних карт щелкайте зеленые стрелки.


METAR-TAF: